createdAt,value
2017-07-26T00:01:40.381Z,16.05
2017-07-26T00:04:12.639Z,16.07
2017-07-26T00:06:44.987Z,16.07
2017-07-26T00:09:17.240Z,16.07
2017-07-26T00:11:49.776Z,16.11
2017-07-26T00:14:21.941Z,16.10
2017-07-26T00:16:54.267Z,16.16
2017-07-26T00:19:26.706Z,16.16
2017-07-26T00:21:59.082Z,16.16
2017-07-26T00:24:31.518Z,16.17
2017-07-26T00:27:04.066Z,16.17
2017-07-26T00:29:36.260Z,16.19
2017-07-26T00:32:08.564Z,16.21
2017-07-26T00:34:40.898Z,16.19
2017-07-26T00:37:13.384Z,16.21
2017-07-26T00:39:45.626Z,16.22
2017-07-26T00:42:17.939Z,16.19
2017-07-26T00:44:50.259Z,16.20
2017-07-26T00:47:22.451Z,16.22
2017-07-26T00:49:54.666Z,16.19
2017-07-26T00:52:26.827Z,16.24
2017-07-26T00:54:59.202Z,16.22
2017-07-26T00:57:31.360Z,16.24
2017-07-26T01:00:04.756Z,16.25
2017-07-26T01:02:37.218Z,16.28
2017-07-26T01:05:09.718Z,16.23
2017-07-26T01:07:42.023Z,16.28
2017-07-26T01:10:14.444Z,16.28
2017-07-26T01:12:46.876Z,16.28
2017-07-26T01:15:19.222Z,16.29
2017-07-26T01:17:52.369Z,16.28
2017-07-26T01:20:25.064Z,16.31
2017-07-26T01:22:57.443Z,16.30
2017-07-26T01:25:29.744Z,16.29
2017-07-26T01:28:02.006Z,16.30
2017-07-26T01:30:34.456Z,16.29
2017-07-26T01:33:06.846Z,16.29
2017-07-26T01:35:39.122Z,16.30
2017-07-26T01:38:11.283Z,16.33
2017-07-26T01:40:43.562Z,16.36
2017-07-26T01:43:15.725Z,16.38
2017-07-26T01:45:48.054Z,16.39
2017-07-26T01:48:20.454Z,16.38
2017-07-26T01:50:52.844Z,16.41
2017-07-26T01:53:25.192Z,16.43
2017-07-26T01:55:57.501Z,16.41
2017-07-26T01:58:29.848Z,16.42
2017-07-26T02:01:02.304Z,16.41
2017-07-26T02:03:34.581Z,16.43
2017-07-26T02:06:07.092Z,16.43
2017-07-26T02:08:39.271Z,16.40
2017-07-26T02:11:11.713Z,16.39
2017-07-26T02:13:44.050Z,16.41
2017-07-26T02:16:16.436Z,16.40
2017-07-26T02:18:48.727Z,16.38
2017-07-26T02:21:21.198Z,16.39
2017-07-26T02:23:53.387Z,16.34
2017-07-26T02:26:25.695Z,16.35
2017-07-26T02:28:57.995Z,16.31
2017-07-26T02:31:30.388Z,16.31
2017-07-26T02:34:02.620Z,16.31
2017-07-26T02:36:35.187Z,16.34
2017-07-26T02:39:07.482Z,16.34
2017-07-26T02:41:39.821Z,16.30
2017-07-26T02:44:12.136Z,16.27
2017-07-26T02:46:44.578Z,16.29
2017-07-26T02:49:16.732Z,16.23
2017-07-26T02:51:49.232Z,16.25
2017-07-26T02:54:21.435Z,16.25
2017-07-26T02:56:53.770Z,16.26
2017-07-26T02:59:26.267Z,16.23
2017-07-26T03:01:58.682Z,16.20
2017-07-26T03:04:31.099Z,16.17
2017-07-26T03:07:03.508Z,16.13
2017-07-26T03:09:35.739Z,16.14
2017-07-26T03:12:08.206Z,16.13
2017-07-26T03:14:40.703Z,16.13
2017-07-26T03:17:12.942Z,16.11
2017-07-26T03:19:45.293Z,16.11
2017-07-26T03:22:17.611Z,16.11
2017-07-26T03:24:49.922Z,16.11
2017-07-26T03:27:22.263Z,16.11
2017-07-26T03:29:54.533Z,16.09
2017-07-26T03:32:26.855Z,16.11
2017-07-26T03:34:59.119Z,16.10
2017-07-26T03:37:31.427Z,16.08
2017-07-26T03:40:03.776Z,16.11
2017-07-26T03:42:36.199Z,16.08
2017-07-26T03:45:08.618Z,16.02
2017-07-26T03:47:40.895Z,16.05
2017-07-26T03:50:13.208Z,16.05
2017-07-26T03:52:45.444Z,16.03
2017-07-26T03:55:17.695Z,16.02
2017-07-26T03:57:50.020Z,16.01
2017-07-26T04:00:22.373Z,16.06
2017-07-26T04:02:54.798Z,16.07
2017-07-26T04:05:27.115Z,16.08
2017-07-26T04:07:59.433Z,16.08
2017-07-26T04:10:31.852Z,16.09
2017-07-26T04:13:04.235Z,16.09
2017-07-26T04:15:36.412Z,16.09
2017-07-26T04:18:08.665Z,16.10
2017-07-26T04:20:40.972Z,16.13
2017-07-26T04:23:13.240Z,16.15
2017-07-26T04:25:45.558Z,16.13
2017-07-26T04:28:17.798Z,16.12
2017-07-26T04:30:50.090Z,16.12
2017-07-26T04:33:22.384Z,16.15
2017-07-26T04:35:54.656Z,16.14
2017-07-26T04:38:27.025Z,16.16
2017-07-26T04:40:59.392Z,16.16
2017-07-26T04:43:31.611Z,16.17
2017-07-26T04:46:03.839Z,16.18
2017-07-26T04:48:36.202Z,16.18
2017-07-26T04:51:08.523Z,16.25
2017-07-26T04:53:40.911Z,16.29
2017-07-26T04:56:13.163Z,16.32
2017-07-26T04:58:46.046Z,16.34
2017-07-26T05:01:17.876Z,16.36
2017-07-26T05:03:50.254Z,16.40
2017-07-26T05:06:22.652Z,16.46
2017-07-26T05:08:54.980Z,16.49
2017-07-26T05:11:27.349Z,16.53
2017-07-26T05:13:59.695Z,16.58
2017-07-26T05:16:32.034Z,16.59
2017-07-26T05:19:04.426Z,16.64
2017-07-26T05:21:36.695Z,16.64
2017-07-26T05:24:09.126Z,16.68
2017-07-26T05:26:41.420Z,16.69
2017-07-26T05:29:13.888Z,16.72
2017-07-26T05:31:46.144Z,16.73
2017-07-26T05:34:18.464Z,16.75
2017-07-26T05:36:50.895Z,16.77
2017-07-26T05:39:23.204Z,16.78
2017-07-26T05:41:55.459Z,16.75
2017-07-26T05:44:27.745Z,16.76
2017-07-26T05:47:00.000Z,16.77
2017-07-26T05:49:32.400Z,16.78
2017-07-26T05:52:04.635Z,16.81
2017-07-26T05:54:37.007Z,16.87
2017-07-26T05:57:09.393Z,16.93
2017-07-26T05:59:41.816Z,17.01
2017-07-26T06:02:14.076Z,17.09
2017-07-26T06:04:46.638Z,17.21
2017-07-26T06:07:18.908Z,17.19
2017-07-26T06:09:51.342Z,17.31
2017-07-26T06:12:23.625Z,17.37
2017-07-26T06:14:56.102Z,17.47
2017-07-26T06:17:28.388Z,17.53
2017-07-26T06:20:00.854Z,17.57
2017-07-26T06:22:33.343Z,17.63
2017-07-26T06:25:05.623Z,17.72
2017-07-26T06:27:38.028Z,17.77
2017-07-26T06:30:10.420Z,17.84
2017-07-26T06:32:42.788Z,17.91
2017-07-26T06:35:15.183Z,18.00
2017-07-26T06:37:47.656Z,18.05
2017-07-26T06:40:19.950Z,18.08
2017-07-26T06:42:52.933Z,18.10
2017-07-26T06:45:25.591Z,18.10
2017-07-26T06:47:57.810Z,18.04
2017-07-26T06:50:30.175Z,18.03
2017-07-26T06:53:02.529Z,18.05
2017-07-26T06:55:34.979Z,18.08
2017-07-26T06:58:07.333Z,18.10
2017-07-26T07:00:39.706Z,18.19
2017-07-26T07:03:11.980Z,18.24
2017-07-26T07:05:44.232Z,18.34
2017-07-26T07:08:16.555Z,18.48
2017-07-26T07:10:48.920Z,18.57
2017-07-26T07:13:21.291Z,18.66
2017-07-26T07:15:53.595Z,18.67
2017-07-26T07:18:25.934Z,18.77
2017-07-26T07:20:58.119Z,18.97
2017-07-26T07:23:30.515Z,19.15
2017-07-26T07:26:02.817Z,19.36
2017-07-26T07:28:34.943Z,19.58
2017-07-26T07:31:07.370Z,19.97
2017-07-26T07:33:39.673Z,20.68
2017-07-26T07:36:11.950Z,21.32
2017-07-26T07:38:44.255Z,21.33
2017-07-26T07:41:16.695Z,21.08
2017-07-26T07:43:48.948Z,20.93
2017-07-26T07:46:21.306Z,20.83
2017-07-26T07:48:53.703Z,20.56
2017-07-26T07:51:26.035Z,20.43
2017-07-26T07:53:58.402Z,20.21
2017-07-26T07:56:30.660Z,20.22
2017-07-26T07:59:02.972Z,20.32
2017-07-26T08:01:35.359Z,20.50
2017-07-26T08:04:07.859Z,20.68
2017-07-26T08:06:40.190Z,20.88
2017-07-26T08:09:12.413Z,20.93
2017-07-26T08:11:45.026Z,20.70
2017-07-26T08:14:17.099Z,20.72
2017-07-26T08:16:49.435Z,20.87
2017-07-26T08:19:21.793Z,20.95
2017-07-26T08:21:54.083Z,21.02
2017-07-26T08:24:26.334Z,20.97
2017-07-26T08:26:58.594Z,21.10
2017-07-26T08:29:30.872Z,21.40
2017-07-26T08:32:03.111Z,21.89
2017-07-26T08:34:35.408Z,22.43
2017-07-26T08:37:07.727Z,22.92
2017-07-26T08:39:40.042Z,23.04
2017-07-26T08:42:12.336Z,22.89
2017-07-26T08:44:44.567Z,22.78
2017-07-26T08:47:16.972Z,22.62
2017-07-26T08:49:49.322Z,22.62
2017-07-26T08:52:21.801Z,22.58
2017-07-26T08:54:54.185Z,22.52
2017-07-26T08:57:26.646Z,22.40
2017-07-26T08:59:59.012Z,22.43
2017-07-26T09:02:31.383Z,22.54
2017-07-26T09:05:03.774Z,22.73
2017-07-26T09:07:36.233Z,22.81
2017-07-26T09:10:08.520Z,22.80
2017-07-26T09:12:41.009Z,22.81
2017-07-26T09:15:13.392Z,22.74
2017-07-26T09:17:45.730Z,22.76
2017-07-26T09:20:18.094Z,22.90
2017-07-26T09:22:50.487Z,23.02
2017-07-26T09:25:22.848Z,23.12
2017-07-26T09:27:55.356Z,23.30
2017-07-26T09:30:27.682Z,23.39
2017-07-26T09:33:00.055Z,23.59
2017-07-26T09:35:32.403Z,23.99
2017-07-26T09:38:04.931Z,24.39
2017-07-26T09:40:37.263Z,24.77
2017-07-26T09:43:09.599Z,24.99
2017-07-26T09:45:41.826Z,25.23
2017-07-26T09:48:14.227Z,25.40
2017-07-26T09:50:46.532Z,25.50
2017-07-26T09:53:18.852Z,25.48
2017-07-26T09:55:51.130Z,25.60
2017-07-26T09:58:23.532Z,25.73
2017-07-26T10:00:55.870Z,26.03
2017-07-26T10:03:28.280Z,26.55
2017-07-26T10:06:00.590Z,26.61
2017-07-26T10:08:33.019Z,26.18
2017-07-26T10:11:05.579Z,25.71
2017-07-26T10:13:37.770Z,25.87
2017-07-26T10:16:10.042Z,27.27
2017-07-26T10:18:42.428Z,28.55
2017-07-26T10:21:14.847Z,29.57
2017-07-26T10:23:47.376Z,29.63
2017-07-26T10:26:19.733Z,29.82
2017-07-26T10:28:52.083Z,29.92
2017-07-26T10:31:24.547Z,29.26
2017-07-26T10:33:56.938Z,29.17
2017-07-26T10:36:29.218Z,29.56
2017-07-26T10:39:01.703Z,30.02
2017-07-26T10:41:34.060Z,30.00
2017-07-26T10:44:06.556Z,29.47
2017-07-26T10:46:38.995Z,28.75
2017-07-26T10:49:11.290Z,28.99
2017-07-26T10:51:43.666Z,29.89
2017-07-26T10:54:16.096Z,30.46
2017-07-26T10:56:48.367Z,30.69
2017-07-26T10:59:21.694Z,30.51
2017-07-26T11:01:54.095Z,30.08
2017-07-26T11:04:26.542Z,30.04
2017-07-26T11:06:58.840Z,30.45
2017-07-26T11:09:32.222Z,30.45
2017-07-26T11:12:04.640Z,31.01
2017-07-26T11:14:37.111Z,31.78
2017-07-26T11:17:09.465Z,31.45
2017-07-26T11:19:41.900Z,31.68
2017-07-26T11:22:14.379Z,32.65
2017-07-26T11:24:46.709Z,33.31
2017-07-26T11:27:19.216Z,32.84
2017-07-26T11:29:51.647Z,32.46
2017-07-26T11:32:24.098Z,32.50
2017-07-26T11:34:56.494Z,32.37
2017-07-26T11:37:28.826Z,31.70
2017-07-26T11:40:01.252Z,30.91
2017-07-26T11:42:33.604Z,30.10
2017-07-26T11:45:05.955Z,29.53
2017-07-26T11:47:38.307Z,29.26
2017-07-26T11:50:10.697Z,29.13
2017-07-26T11:52:43.200Z,28.99
2017-07-26T11:55:15.594Z,28.86
2017-07-26T11:57:47.991Z,28.76
2017-07-26T12:00:20.502Z,28.38
2017-07-26T12:02:52.871Z,27.75
2017-07-26T12:05:25.354Z,27.69
2017-07-26T12:07:57.827Z,27.58
2017-07-26T12:10:30.129Z,27.56
2017-07-26T12:13:02.458Z,27.60
2017-07-26T12:15:34.768Z,27.83
2017-07-26T12:18:07.166Z,27.95
2017-07-26T12:20:39.578Z,28.13
2017-07-26T12:23:11.958Z,28.19
2017-07-26T12:25:44.195Z,28.39
2017-07-26T12:28:16.526Z,28.50
2017-07-26T12:30:48.913Z,28.66
2017-07-26T12:33:21.170Z,28.63
2017-07-26T12:35:53.518Z,28.45
2017-07-26T12:38:25.897Z,28.38
2017-07-26T12:40:58.272Z,27.99
2017-07-26T12:43:30.678Z,28.09
2017-07-26T12:46:03.056Z,27.93
2017-07-26T12:48:35.492Z,27.87
2017-07-26T12:51:08.151Z,27.94
2017-07-26T12:53:40.235Z,28.03
2017-07-26T12:56:12.639Z,27.87
2017-07-26T12:58:44.909Z,27.90
2017-07-26T13:01:17.385Z,28.05
2017-07-26T13:03:49.559Z,28.00
2017-07-26T13:06:21.944Z,27.86
2017-07-26T13:08:54.347Z,27.68
2017-07-26T13:11:26.799Z,27.56
2017-07-26T13:13:59.219Z,27.29
2017-07-26T13:16:31.987Z,27.09
2017-07-26T13:19:04.093Z,27.00
2017-07-26T13:21:36.630Z,26.83
2017-07-26T13:24:08.735Z,26.75
2017-07-26T13:26:41.123Z,26.80
2017-07-26T13:29:13.476Z,26.89
2017-07-26T13:31:45.848Z,26.86
2017-07-26T13:34:18.300Z,26.78
2017-07-26T13:36:50.718Z,26.81
2017-07-26T13:39:23.154Z,26.90
2017-07-26T13:41:55.579Z,26.92
2017-07-26T13:44:27.974Z,26.93
2017-07-26T13:47:00.415Z,26.86
2017-07-26T13:49:32.745Z,26.77
2017-07-26T13:52:05.168Z,27.14
2017-07-26T13:54:37.460Z,27.86
2017-07-26T13:57:09.900Z,28.15
2017-07-26T13:59:42.095Z,28.31
2017-07-26T14:02:14.366Z,28.51
2017-07-26T14:04:46.679Z,28.53
2017-07-26T14:07:18.970Z,28.86
2017-07-26T14:09:51.231Z,29.22
2017-07-26T14:12:23.622Z,28.86
2017-07-26T14:14:55.990Z,28.58
2017-07-26T14:17:28.384Z,27.85
2017-07-26T14:20:00.922Z,27.47
2017-07-26T14:22:33.400Z,27.16
2017-07-26T14:25:05.688Z,26.77
2017-07-26T14:27:38.108Z,26.66
2017-07-26T14:30:10.467Z,26.38
2017-07-26T14:32:42.817Z,26.28
2017-07-26T14:35:15.171Z,26.30
2017-07-26T14:37:48.758Z,26.51
2017-07-26T14:40:21.153Z,26.73
2017-07-26T14:42:53.543Z,26.97
2017-07-26T14:45:25.907Z,27.04
2017-07-26T14:47:59.253Z,26.98
2017-07-26T14:50:31.662Z,27.11
2017-07-26T14:53:04.052Z,27.08
2017-07-26T14:55:36.450Z,27.12
2017-07-26T14:58:08.818Z,27.18
2017-07-26T15:00:41.240Z,27.47
2017-07-26T15:03:13.321Z,27.65
2017-07-26T15:05:45.691Z,27.47
2017-07-26T15:08:17.998Z,27.17
2017-07-26T15:10:50.261Z,26.88
2017-07-26T15:13:22.604Z,26.68
2017-07-26T15:15:55.086Z,26.49
2017-07-26T15:18:27.592Z,26.30
2017-07-26T15:21:00.035Z,26.29
2017-07-26T15:23:32.459Z,26.35
2017-07-26T15:26:05.184Z,26.41
2017-07-26T15:28:37.267Z,26.56
2017-07-26T15:31:09.643Z,26.68
2017-07-26T15:33:42.127Z,26.78
2017-07-26T15:36:14.480Z,26.88
2017-07-26T15:38:46.869Z,26.94
2017-07-26T15:41:19.295Z,26.94
2017-07-26T15:43:51.640Z,26.93
2017-07-26T15:46:24.067Z,26.97
2017-07-26T15:48:56.414Z,27.06
2017-07-26T15:51:29.021Z,27.16
2017-07-26T15:54:01.178Z,27.27
2017-07-26T15:56:33.661Z,27.02
2017-07-26T15:59:06.159Z,26.74
2017-07-26T16:01:38.444Z,26.62
2017-07-26T16:04:10.793Z,26.41
2017-07-26T16:06:43.056Z,26.23
2017-07-26T16:09:15.527Z,26.05
2017-07-26T16:11:48.010Z,25.90
2017-07-26T16:14:21.508Z,25.76
2017-07-26T16:16:54.024Z,25.67
2017-07-26T16:19:26.413Z,25.58
2017-07-26T16:21:58.750Z,25.49
2017-07-26T16:24:31.131Z,25.38
2017-07-26T16:27:03.519Z,25.33
2017-07-26T16:29:35.841Z,25.23
2017-07-26T16:32:08.061Z,25.19
2017-07-26T16:34:40.424Z,25.11
2017-07-26T16:37:12.762Z,25.09
2017-07-26T16:39:45.193Z,25.27
2017-07-26T16:42:17.426Z,25.37
2017-07-26T16:44:49.859Z,25.25
2017-07-26T16:47:22.168Z,25.32
2017-07-26T16:49:54.658Z,25.40
2017-07-26T16:52:27.015Z,25.65
2017-07-26T16:54:59.420Z,25.81
2017-07-26T16:57:31.771Z,25.85
2017-07-26T17:00:03.947Z,25.87
2017-07-26T17:02:36.266Z,25.84
2017-07-26T17:05:08.683Z,25.90
2017-07-26T17:07:41.078Z,25.95
2017-07-26T17:10:13.548Z,25.96
2017-07-26T17:12:45.982Z,25.98
2017-07-26T17:15:18.338Z,25.91
2017-07-26T17:17:50.583Z,25.81
2017-07-26T17:20:22.875Z,25.73
2017-07-26T17:22:55.202Z,25.68
2017-07-26T17:25:27.517Z,25.58
2017-07-26T17:27:59.863Z,25.41
2017-07-26T17:30:32.115Z,25.30
2017-07-26T17:33:04.462Z,25.20
2017-07-26T17:35:36.712Z,25.18
2017-07-26T17:38:09.003Z,25.15
2017-07-26T17:40:41.323Z,25.10
2017-07-26T17:43:13.682Z,25.05
2017-07-26T17:45:47.095Z,25.00
2017-07-26T17:48:19.479Z,24.99
2017-07-26T17:50:51.795Z,24.96
2017-07-26T17:53:24.085Z,24.92
2017-07-26T17:55:56.313Z,24.91
2017-07-26T17:58:28.595Z,24.85
2017-07-26T18:01:00.980Z,24.79
2017-07-26T18:03:43.287Z,24.75
2017-07-26T18:06:15.495Z,24.63
2017-07-26T18:08:47.845Z,24.54
2017-07-26T18:11:20.200Z,24.46
2017-07-26T18:13:52.526Z,24.35
2017-07-26T18:16:24.843Z,24.26
2017-07-26T18:18:57.053Z,24.20
2017-07-26T18:21:29.320Z,24.13
2017-07-26T18:24:01.700Z,24.03
2017-07-26T18:26:34.147Z,23.84
2017-07-26T18:29:06.651Z,23.75
2017-07-26T18:31:38.996Z,23.66
2017-07-26T18:34:11.466Z,23.58
2017-07-26T18:36:43.940Z,23.59
2017-07-26T18:39:16.300Z,23.61
2017-07-26T18:41:48.639Z,23.62
2017-07-26T18:44:20.992Z,23.59
2017-07-26T18:46:53.371Z,23.56
2017-07-26T18:49:25.816Z,23.47
2017-07-26T18:51:58.308Z,23.31
2017-07-26T18:54:30.564Z,23.12
2017-07-26T18:57:02.927Z,23.03
2017-07-26T18:59:35.418Z,22.82
2017-07-26T19:02:07.755Z,22.69
2017-07-26T19:04:40.120Z,22.54
2017-07-26T19:07:12.412Z,22.43
2017-07-26T19:09:44.924Z,22.31
2017-07-26T19:12:17.349Z,22.21
2017-07-26T19:14:49.690Z,22.13
2017-07-26T19:17:22.122Z,22.06
2017-07-26T19:19:54.531Z,21.98
2017-07-26T19:22:26.883Z,21.90
2017-07-26T19:24:59.255Z,21.85
2017-07-26T19:27:31.623Z,21.77
2017-07-26T19:30:04.130Z,21.64
2017-07-26T19:32:36.488Z,21.52
2017-07-26T19:35:09.011Z,21.40
2017-07-26T19:37:41.251Z,21.27
2017-07-26T19:40:13.642Z,21.15
2017-07-26T19:42:45.992Z,21.02
2017-07-26T19:45:18.351Z,20.90
2017-07-26T19:47:50.799Z,20.75
2017-07-26T19:50:23.198Z,20.65
2017-07-26T19:52:55.738Z,20.55
2017-07-26T19:55:28.212Z,20.45
2017-07-26T19:58:00.590Z,20.36
2017-07-26T20:00:32.983Z,20.25
2017-07-26T20:03:05.289Z,20.11
2017-07-26T20:05:37.683Z,19.99
2017-07-26T20:08:10.170Z,19.90
2017-07-26T20:10:42.694Z,19.78
2017-07-26T20:13:14.874Z,19.63
2017-07-26T20:15:47.255Z,19.52
2017-07-26T20:18:19.601Z,19.46
2017-07-26T20:20:52.027Z,19.44
2017-07-26T20:23:24.303Z,19.41
2017-07-26T20:25:56.739Z,19.41
2017-07-26T20:28:29.082Z,19.40
2017-07-26T20:31:01.523Z,19.39
2017-07-26T20:33:33.958Z,19.32
2017-07-26T20:36:06.360Z,19.29
2017-07-26T20:38:38.724Z,19.27
2017-07-26T20:41:11.127Z,19.23
2017-07-26T20:43:43.427Z,19.14
2017-07-26T20:46:15.827Z,19.14
2017-07-26T20:48:48.264Z,19.14
2017-07-26T20:51:20.662Z,19.12
2017-07-26T20:53:52.938Z,19.08
2017-07-26T20:56:25.418Z,19.09
2017-07-26T20:58:57.746Z,19.06
2017-07-26T21:01:30.180Z,18.98
2017-07-26T21:04:02.498Z,18.96
2017-07-26T21:06:34.847Z,18.97
2017-07-26T21:09:07.215Z,18.90
2017-07-26T21:11:39.791Z,18.83
2017-07-26T21:14:12.080Z,18.77
2017-07-26T21:16:44.692Z,18.77
2017-07-26T21:19:17.046Z,18.74
2017-07-26T21:21:49.464Z,18.73
2017-07-26T21:24:21.731Z,18.70
2017-07-26T21:26:54.132Z,18.68
2017-07-26T21:29:26.537Z,18.63
2017-07-26T21:31:59.064Z,18.59
2017-07-26T21:34:31.386Z,18.56
2017-07-26T21:37:03.826Z,18.59
2017-07-26T21:39:36.174Z,18.54
2017-07-26T21:42:08.491Z,18.54
2017-07-26T21:44:40.809Z,18.49
2017-07-26T21:47:13.306Z,18.43
2017-07-26T21:49:45.663Z,18.44
2017-07-26T21:52:18.043Z,18.41
2017-07-26T21:54:50.350Z,18.34
2017-07-26T21:57:22.798Z,18.36
2017-07-26T21:59:55.263Z,18.35
2017-07-26T22:02:27.650Z,18.33
2017-07-26T22:05:00.030Z,18.26
2017-07-26T22:07:32.513Z,18.23
2017-07-26T22:10:04.823Z,18.19
2017-07-26T22:12:37.164Z,18.15
2017-07-26T22:15:09.431Z,18.13
2017-07-26T22:17:41.831Z,18.04
2017-07-26T22:20:14.192Z,17.98
2017-07-26T22:22:46.539Z,17.92
2017-07-26T22:25:18.819Z,17.86
2017-07-26T22:27:51.188Z,17.81
2017-07-26T22:30:23.455Z,17.77
2017-07-26T22:32:55.748Z,17.72
2017-07-26T22:35:28.087Z,17.57
2017-07-26T22:38:00.403Z,17.50
2017-07-26T22:40:32.743Z,17.42
2017-07-26T22:43:05.011Z,17.37
2017-07-26T22:45:37.310Z,17.33
2017-07-26T22:48:09.467Z,17.30
2017-07-26T22:50:41.820Z,17.30
2017-07-26T22:53:14.195Z,17.30
2017-07-26T22:55:46.462Z,17.24
2017-07-26T22:58:18.736Z,17.23
2017-07-26T23:00:51.027Z,17.22
2017-07-26T23:03:23.392Z,17.23
2017-07-26T23:05:55.668Z,17.33
2017-07-26T23:08:28.247Z,17.37
2017-07-26T23:11:00.496Z,17.40
2017-07-26T23:13:32.959Z,17.44
2017-07-26T23:16:05.383Z,17.47
2017-07-26T23:18:38.749Z,17.52
2017-07-26T23:21:11.132Z,17.57
2017-07-26T23:23:43.605Z,17.61
2017-07-26T23:26:15.652Z,17.59
2017-07-26T23:28:48.215Z,17.62
2017-07-26T23:31:20.268Z,17.66
2017-07-26T23:33:52.603Z,17.68
2017-07-26T23:36:24.864Z,17.73
2017-07-26T23:38:57.144Z,17.73
2017-07-26T23:41:29.367Z,17.77
2017-07-26T23:44:01.555Z,17.80
2017-07-26T23:46:33.956Z,17.81
2017-07-26T23:49:06.229Z,17.78
2017-07-26T23:51:38.581Z,17.73
2017-07-26T23:54:10.974Z,17.70
2017-07-26T23:56:43.301Z,17.74
2017-07-26T23:59:15.701Z,17.80
